Time;durP1;ratioP1;P1;durP2;ratioP2;P2;SDS_P1;SDS_P2;PMS_P1;PMS_P2;Temp;Humidity;BMP_temperature;BMP_pressure;BME280_temperature;BME280_humidity;BME280_pressure;Samples;Min_cycle;Max_cycle;Signal;HPM_P1;HPM_P2
2022/02/26 00:01:54;;;;;;;7.23;4.03;;;2.90;99.90;;;3.30;66.10;98905.28;6235900;23;20020;-40
2022/02/26 00:04:22;;;;;;;6.13;3.13;;;2.90;99.90;;;3.34;65.70;98906.81;6209490;23;20016;-40
2022/02/26 00:06:50;;;;;;;9.47;3.47;;;3.00;99.90;;;3.35;66.30;98912.00;6235711;23;20017;-41
2022/02/26 00:09:19;;;;;;;6.60;3.50;;;3.00;99.90;;;3.35;66.14;98912.00;6210473;23;20016;-41
2022/02/26 00:11:47;;;;;;;9.67;3.20;;;3.00;99.90;;;3.33;66.31;98911.22;6235195;23;20046;-40
2022/02/26 00:14:15;;;;;;;5.77;3.03;;;3.00;99.90;;;3.36;66.22;98907.56;6236380;23;20024;-42
2022/02/26 00:16:42;;;;;;;7.70;3.30;;;3.10;99.90;;;3.31;66.63;98912.22;6235952;23;20706;-41
2022/02/26 00:19:11;;;;;;;6.67;3.07;;;3.00;99.90;;;3.33;66.41;98916.50;6236752;23;20020;-40
2022/02/26 00:21:40;;;;;;;5.97;2.70;;;3.00;99.90;;;3.38;66.47;98928.56;6236556;23;20022;-40
2022/02/26 00:24:08;;;;;;;7.70;2.30;;;3.10;99.90;;;3.40;66.42;98921.41;6236448;23;20205;-41
2022/02/26 00:26:36;;;;;;;6.87;2.87;;;3.10;99.90;;;3.45;66.25;98929.88;6236616;23;20337;-42
2022/02/26 00:29:06;;;;;;;5.87;2.77;;;3.20;99.90;;;3.49;66.11;98934.03;6236870;23;20295;-40
2022/02/26 00:31:34;;;;;;;5.17;3.10;;;3.20;99.90;;;3.52;66.22;98929.47;6210374;23;20019;-43
2022/02/26 00:34:02;;;;;;;7.13;2.77;;;3.20;99.90;;;3.56;66.19;98930.16;6236037;23;20016;-40
2022/02/26 00:36:30;;;;;;;6.47;3.00;;;3.20;99.90;;;3.55;66.07;98937.19;6234762;23;20336;-40
2022/02/26 00:38:57;;;;;;;7.37;3.17;;;3.30;99.90;;;3.46;65.90;98937.72;6236451;23;20322;-41
2022/02/26 00:41:26;;;;;;;7.37;4.00;;;3.20;99.90;;;3.46;66.37;98932.44;6237917;23;20042;-41
2022/02/26 00:43:53;;;;;;;7.67;4.60;;;3.10;99.90;;;3.50;66.06;98935.75;6236225;23;20012;-41
2022/02/26 00:46:21;;;;;;;9.70;4.00;;;3.20;99.90;;;3.38;66.39;98945.19;6236474;23;20012;-41
2022/02/26 00:51:36;;;;;;;8.97;4.17;;;3.00;99.90;;;3.30;66.38;98950.88;6233367;23;20024;-40
2022/02/26 00:54:04;;;;;;;7.77;3.67;;;3.00;99.90;;;3.33;66.36;98955.97;6210206;23;20016;-40
2022/02/26 00:56:32;;;;;;;9.97;6.27;;;3.00;99.90;;;3.30;66.80;98958.75;6236350;23;20016;-42
2022/02/26 00:59:00;;;;;;;7.57;4.00;;;3.00;99.90;;;3.33;66.49;98961.25;6236650;23;20023;-41
2022/02/26 01:01:27;;;;;;;12.70;4.40;;;3.00;99.90;;;3.30;66.46;98969.28;6187010;23;20226;-40
2022/02/26 01:03:56;;;;;;;6.80;3.40;;;3.00;99.90;;;3.22;66.89;98975.88;6235833;23;20016;-40
2022/02/26 01:06:24;;;;;;;5.37;3.13;;;3.00;99.90;;;3.19;67.29;98978.72;6237067;23;20229;-40
2022/02/26 01:08:53;;;;;;;7.23;3.20;;;2.90;99.90;;;3.14;67.48;98969.28;6235639;23;20012;-41
2022/02/26 01:11:21;;;;;;;7.93;3.67;;;2.90;99.90;;;3.21;67.38;98969.78;6236358;23;20020;-41
2022/02/26 01:13:49;;;;;;;10.90;4.23;;;3.00;99.90;;;3.20;67.42;98983.91;6235796;23;20027;-41
2022/02/26 01:16:17;;;;;;;7.90;4.37;;;3.00;99.90;;;3.27;67.47;98979.13;6233257;23;20024;-42
2022/02/26 01:18:45;;;;;;;8.13;3.70;;;3.10;99.90;;;3.24;67.43;98980.16;6235996;23;20318;-41
2022/02/26 01:21:13;;;;;;;7.87;4.03;;;3.00;99.90;;;3.25;67.38;98976.56;6236490;23;20126;-41
2022/02/26 01:23:41;;;;;;;7.20;4.03;;;3.00;99.90;;;3.31;66.94;98978.03;6235351;23;20218;-42
2022/02/26 01:26:10;;;;;;;12.23;4.80;;;3.00;99.90;;;3.26;66.79;98975.66;6236469;23;20020;-41
2022/02/26 01:28:38;;;;;;;7.63;4.03;;;2.90;99.90;;;3.21;67.19;98971.56;6235542;23;20016;-42
2022/02/26 01:31:05;;;;;;;6.53;3.50;;;2.90;99.90;;;3.23;66.53;98972.34;6236137;23;20018;-42
2022/02/26 01:33:33;;;;;;;8.73;4.53;;;2.90;99.90;;;3.08;67.05;98981.91;6234987;23;20344;-41
2022/02/26 01:36:01;;;;;;;9.23;4.33;;;2.80;99.90;;;3.06;67.27;98978.50;6236612;23;20322;-41
2022/02/26 01:38:29;;;;;;;7.30;3.43;;;2.70;99.90;;;2.86;67.94;98977.75;6235144;23;20034;-41
2022/02/26 01:40:58;;;;;;;10.07;5.03;;;2.60;99.90;;;2.93;67.60;98984.41;6237379;23;20016;-40
2022/02/26 01:43:26;;;;;;;6.17;4.53;;;2.60;99.90;;;2.96;67.35;98980.75;6235870;23;20022;-40
2022/02/26 01:45:54;;;;;;;8.43;5.03;;;2.60;99.90;;;3.01;67.15;98985.81;6209538;23;20012;-40
2022/02/26 01:48:22;;;;;;;10.57;4.77;;;2.70;99.90;;;3.00;66.88;98984.94;6235840;23;20016;-40
2022/02/26 01:50:50;;;;;;;7.57;3.47;;;2.60;99.90;;;2.98;67.04;98992.06;6235524;23;20229;-40
2022/02/26 01:53:18;;;;;;;6.27;3.33;;;2.60;99.90;;;2.98;67.01;98986.78;6236238;23;20012;-41
2022/02/26 01:55:46;;;;;;;6.17;3.10;;;2.60;99.90;;;2.96;67.13;98991.28;6235589;23;20038;-40
2022/02/26 01:58:13;;;;;;;5.77;3.30;;;2.70;99.90;;;2.98;66.85;98992.06;6235691;23;20020;-40
2022/02/26 02:00:41;;;;;;;5.33;3.80;;;2.60;99.90;;;2.90;67.01;98995.09;6207946;23;20027;-40
2022/02/26 02:03:10;;;;;;;4.93;2.50;;;2.60;99.90;;;2.82;67.38;98985.91;6235852;23;20030;-42
2022/02/26 02:05:38;;;;;;;8.83;2.77;;;2.50;99.90;;;2.84;67.03;98981.41;6235409;23;20196;-39
2022/02/26 02:08:06;;;;;;;7.17;4.33;;;2.50;99.90;;;2.89;66.93;98982.88;6234934;23;20016;-40
2022/02/26 02:10:36;;;;;;;5.80;3.23;;;2.50;99.90;;;2.94;66.65;98974.72;6231513;23;20230;-40
2022/02/26 02:13:04;;;;;;;9.30;3.27;;;2.60;99.90;;;2.99;66.53;98979.78;6211145;23;20016;-40
2022/02/26 02:15:38;;;;;;;6.87;3.13;;;2.60;99.90;;;3.00;66.73;98986.72;6236493;23;20314;-43
2022/02/26 02:18:10;;;;;;;13.20;3.13;;;2.60;99.90;;;3.02;66.38;98990.13;6234600;23;20356;-41
2022/02/26 02:20:39;;;;;;;4.30;2.97;;;2.60;99.90;;;3.05;66.34;98990.81;6240982;23;20031;-40
2022/02/26 02:23:10;;;;;;;8.77;3.60;;;2.70;99.90;;;3.05;66.20;98995.22;6245532;23;20024;-41
2022/02/26 02:25:39;;;;;;;7.77;3.10;;;2.60;99.90;;;3.09;66.24;98997.59;6235161;23;20015;-41
2022/02/26 02:28:09;;;;;;;6.27;3.30;;;2.70;99.90;;;2.99;66.17;98987.66;6236015;23;20207;-42
2022/02/26 02:30:38;;;;;;;8.90;3.30;;;2.60;99.90;;;2.95;66.18;98987.81;6209686;23;20020;-40
2022/02/26 02:33:06;;;;;;;7.40;3.57;;;2.50;99.90;;;2.94;66.24;98988.72;6235026;23;20012;-40
2022/02/26 02:35:42;;;;;;;8.23;3.43;;;2.50;99.90;;;2.90;66.64;98986.34;6235203;23;20034;-40
2022/02/26 02:42:41;;;;;;;7.50;3.23;;;2.40;99.90;;;2.67;67.03;98992.81;6245340;23;20030;-40
2022/02/26 02:45:09;;;;;;;7.33;3.63;;;2.20;99.90;;;2.65;66.71;98987.63;6235386;23;20190;-40
2022/02/26 02:47:37;;;;;;;5.40;3.00;;;2.20;99.90;;;2.65;66.83;98992.88;6235582;23;20020;-40
2022/02/26 02:50:08;;;;;;;12.03;3.70;;;2.30;99.90;;;2.73;66.76;98995.97;6234098;23;20310;-40
2022/02/26 02:52:36;;;;;;;8.60;3.20;;;2.40;99.90;;;2.70;66.97;98998.75;6235036;23;20019;-40
2022/02/26 02:55:06;;;;;;;7.57;3.53;;;2.40;99.90;;;2.75;66.70;98994.13;6233527;23;20020;-40
2022/02/26 02:57:33;;;;;;;6.97;3.77;;;2.40;99.90;;;2.78;66.95;98998.38;6235248;23;20022;-41
2022/02/26 03:00:05;;;;;;;7.23;4.20;;;2.40;99.90;;;2.85;67.18;99007.66;6234067;23;20035;-41
2022/02/26 03:02:33;;;;;;;5.83;3.50;;;2.60;99.90;;;2.91;66.85;99001.22;6234558;23;20020;-40
2022/02/26 03:05:01;;;;;;;9.43;4.53;;;2.60;99.90;;;2.95;66.65;99002.75;6234333;23;20075;-41
2022/02/26 03:07:29;;;;;;;6.47;4.57;;;2.70;99.90;;;2.94;66.95;99001.03;6234797;23;20035;-40
2022/02/26 03:09:56;;;;;;;7.40;4.30;;;2.60;99.90;;;3.00;66.77;99013.88;6233099;23;20024;-40
2022/02/26 03:12:24;;;;;;;7.03;3.67;;;2.70;99.90;;;3.04;66.67;99012.78;6235058;23;20024;-40
2022/02/26 03:14:52;;;;;;;5.80;3.30;;;2.70;99.90;;;3.08;66.69;99011.72;6207566;23;20012;-40
2022/02/26 03:17:20;;;;;;;7.57;3.83;;;2.80;99.90;;;3.13;66.52;99008.81;6234692;23;20218;-40
2022/02/26 03:19:49;;;;;;;7.83;4.87;;;2.80;99.90;;;3.14;66.44;99014.00;6234110;23;20012;-40
2022/02/26 03:22:20;;;;;;;9.67;5.00;;;2.80;99.90;;;3.13;66.51;99020.19;6235245;23;20012;-40
2022/02/26 03:24:48;;;;;;;6.33;3.93;;;2.70;99.90;;;3.13;66.16;99021.97;6234662;23;20194;-40
2022/02/26 03:27:16;;;;;;;10.67;4.03;;;2.80;99.90;;;3.06;66.43;99024.06;6182854;23;20012;-40
2022/02/26 03:29:44;;;;;;;10.70;5.90;;;2.70;99.90;;;3.02;66.20;99030.44;6234235;23;20020;-40
2022/02/26 03:32:12;;;;;;;10.17;4.97;;;2.60;99.90;;;2.97;66.46;99024.56;6235600;23;20018;-41
2022/02/26 03:34:40;;;;;;;8.07;3.90;;;2.60;99.90;;;2.99;66.41;99024.50;6236331;23;20020;-42
2022/02/26 03:37:09;;;;;;;10.70;4.60;;;2.50;99.90;;;2.95;65.95;99034.31;6236029;23;20026;-41
2022/02/26 03:39:37;;;;;;;12.93;4.77;;;2.50;99.90;;;2.93;66.32;99025.66;6237351;23;20024;-40
2022/02/26 03:42:08;;;;;;;11.13;4.50;;;2.50;99.90;;;2.93;66.13;99028.28;6236987;23;20214;-41
2022/02/26 03:44:36;;;;;;;10.03;5.63;;;2.50;99.90;;;2.92;66.34;99037.09;6247341;23;20016;-40
2022/02/26 03:47:05;;;;;;;8.47;4.53;;;2.50;99.90;;;2.92;66.13;99039.72;6235395;23;20196;-40
2022/02/26 03:49:33;;;;;;;8.33;5.60;;;2.50;99.90;;;2.95;66.29;99044.84;6235631;23;20024;-40
2022/02/26 03:52:01;;;;;;;10.00;4.17;;;2.50;99.90;;;2.96;66.46;99043.91;6236590;23;20023;-41
2022/02/26 03:54:29;;;;;;;8.40;4.93;;;2.50;99.90;;;2.87;66.76;99049.63;6236209;23;20330;-40
2022/02/26 03:56:57;;;;;;;8.83;5.17;;;2.50;99.90;;;2.88;66.36;99059.25;6236670;23;20016;-40
2022/02/26 03:59:25;;;;;;;11.27;5.23;;;2.50;99.90;;;2.75;67.03;99053.75;6235658;23;20222;-41
2022/02/26 04:01:53;;;;;;;11.43;5.13;;;2.40;99.90;;;2.76;67.13;99060.72;6237037;23;20030;-40
2022/02/26 04:04:22;;;;;;;14.60;5.67;;;2.40;99.90;;;2.75;67.25;99059.88;6236174;23;20020;-40
2022/02/26 04:06:50;;;;;;;11.77;4.97;;;2.40;99.90;;;2.76;67.21;99061.56;6236050;23;20022;-41
2022/02/26 04:09:19;;;;;;;8.20;4.50;;;2.40;99.90;;;2.74;67.17;99060.78;6234893;23;20322;-40
2022/02/26 04:11:47;;;;;;;9.03;4.70;;;2.40;99.90;;;2.71;67.30;99063.56;6237112;23;20290;-41
2022/02/26 04:14:15;;;;;;;9.07;5.20;;;2.40;99.90;;;2.73;67.41;99068.75;6235393;23;20024;-40
2022/02/26 04:16:43;;;;;;;14.33;5.00;;;2.40;99.90;;;2.75;67.42;99066.88;6235764;23;20214;-40
2022/02/26 04:19:10;;;;;;;14.53;6.27;;;2.40;99.90;;;2.80;67.36;99075.41;6235975;23;20040;-40
2022/02/26 04:21:39;;;;;;;9.40;5.50;;;2.50;99.90;;;2.79;67.35;99078.09;6235673;23;20246;-41
2022/02/26 04:24:07;;;;;;;17.87;8.40;;;2.50;99.90;;;2.76;67.94;99079.13;6233469;23;20031;-40
2022/02/26 04:26:35;;;;;;;21.63;12.33;;;2.50;99.90;;;2.69;67.86;99072.47;6234114;23;20226;-41
2022/02/26 04:29:03;;;;;;;15.97;9.03;;;2.40;99.90;;;2.68;67.78;99078.66;6233612;23;20030;-42
2022/02/26 04:31:31;;;;;;;15.73;9.47;;;2.40;99.90;;;2.66;67.86;99078.75;6234424;23;20042;-41
2022/02/26 04:33:59;;;;;;;19.23;8.07;;;2.30;99.90;;;2.69;67.89;99083.81;6235491;23;20318;-41
2022/02/26 04:36:26;;;;;;;18.80;9.93;;;2.40;99.90;;;2.72;67.89;99077.59;6234491;23;20044;-41
2022/02/26 04:38:54;;;;;;;18.03;8.03;;;2.40;99.90;;;2.72;67.76;99077.59;6235619;23;20444;-40
2022/02/26 04:41:22;;;;;;;48.67;25.53;;;2.40;99.90;;;2.66;68.53;99084.00;6233466;23;20020;-40
2022/02/26 04:43:50;;;;;;;26.07;13.07;;;2.40;99.90;;;2.68;67.96;99078.66;6233102;23;20023;-40
2022/02/26 04:46:18;;;;;;;22.10;11.80;;;2.30;99.90;;;2.63;68.01;99084.13;6233762;23;20307;-40
2022/02/26 04:48:46;;;;;;;17.17;11.10;;;2.40;99.90;;;2.58;68.64;99083.53;6233834;23;20222;-40
2022/02/26 04:51:14;;;;;;;16.03;8.27;;;2.30;99.90;;;2.56;68.25;99083.59;6234869;23;20016;-40
2022/02/26 04:53:42;;;;;;;18.07;8.63;;;2.30;99.90;;;2.56;68.29;99091.50;6234214;23;20022;-40
2022/02/26 04:56:09;;;;;;;13.93;8.73;;;2.20;99.90;;;2.63;68.23;99093.81;6206690;23;20028;-44
2022/02/26 04:58:37;;;;;;;14.93;7.77;;;2.30;99.90;;;2.68;68.11;99090.03;6234575;23;20024;-40
2022/02/26 05:01:06;;;;;;;10.70;6.60;;;2.40;99.90;;;2.65;68.27;99086.69;6233759;23;20225;-40
2022/02/26 05:03:33;;;;;;;20.63;9.90;;;2.40;99.90;;;2.68;68.23;99086.56;6235016;23;20332;-40
2022/02/26 05:06:01;;;;;;;13.33;7.87;;;2.40;99.90;;;2.73;68.21;99084.53;6232802;23;20030;-40
2022/02/26 05:08:29;;;;;;;11.87;7.70;;;2.40;99.90;;;2.72;67.97;99091.56;6233515;23;20030;-41
2022/02/26 05:10:57;;;;;;;12.03;6.60;;;2.40;99.90;;;2.75;67.82;99088.81;6232630;23;20024;-40
2022/02/26 05:13:25;;;;;;;14.70;8.10;;;2.40;99.90;;;2.73;68.02;99088.03;6234898;23;20348;-40
2022/02/26 05:15:53;;;;;;;12.97;6.43;;;2.40;99.90;;;2.56;68.70;99085.38;6234797;23;20019;-40
2022/02/26 05:18:20;;;;;;;15.70;6.70;;;2.30;99.90;;;2.64;68.18;99088.47;6234263;23;20024;-40
2022/02/26 05:20:48;;;;;;;11.63;7.73;;;2.30;99.90;;;2.65;68.44;99097.22;6185328;23;1124434;-40
2022/02/26 05:23:16;;;;;;;11.20;6.73;;;2.30;99.90;;;2.65;68.25;99097.22;6208816;23;20027;-41
2022/02/26 05:25:44;;;;;;;14.17;7.17;;;2.30;99.90;;;2.71;68.57;99102.16;6236029;23;20018;-40
2022/02/26 05:28:12;;;;;;;14.40;8.10;;;2.40;99.90;;;2.57;68.55;99100.22;6235097;23;20030;-40
2022/02/26 05:30:39;;;;;;;15.23;7.50;;;2.30;99.90;;;2.59;68.22;99100.16;6235701;23;20018;-40
2022/02/26 05:33:08;;;;;;;15.00;6.27;;;2.30;99.90;;;2.66;68.23;99106.81;6209977;23;20018;-41
2022/02/26 05:35:35;;;;;;;15.00;6.90;;;2.40;99.90;;;2.71;68.29;99103.00;6235107;23;20011;-42
2022/02/26 05:38:03;;;;;;;11.03;6.00;;;2.40;99.90;;;2.67;68.52;99108.50;6235989;23;20361;-42
2022/02/26 05:40:31;;;;;;;13.77;5.67;;;2.40;99.90;;;2.73;68.30;99109.06;6234122;23;20204;-41
2022/02/26 05:42:59;;;;;;;11.63;6.17;;;2.40;99.90;;;2.68;68.69;99111.06;6234912;23;20035;-41
2022/02/26 05:45:27;;;;;;;13.57;6.97;;;2.40;99.90;;;2.71;68.09;99124.03;6235040;23;20023;-40
2022/02/26 05:47:54;;;;;;;13.23;5.33;;;2.40;99.90;;;2.69;67.90;99125.91;6235729;23;20020;-41
2022/02/26 05:50:22;;;;;;;14.50;7.43;;;2.30;99.90;;;2.60;68.40;99125.50;6235029;23;20021;-41
2022/02/26 05:52:50;;;;;;;13.00;6.13;;;2.20;99.90;;;2.53;68.25;99128.44;6235435;23;20327;-41
2022/02/26 05:55:18;;;;;;;10.67;6.20;;;2.20;99.90;;;2.54;68.62;99129.31;6233988;23;20019;-41
2022/02/26 05:57:46;;;;;;;15.57;7.50;;;2.20;99.90;;;2.55;68.64;99126.59;6235627;23;20023;-40
2022/02/26 06:00:16;;;;;;;13.70;5.80;;;2.20;99.90;;;2.59;68.28;99136.97;6233390;23;20026;-41
2022/02/26 06:02:44;;;;;;;11.50;5.60;;;2.20;99.90;;;2.60;67.98;99136.91;6236537;23;20206;-41
2022/02/26 06:05:12;;;;;;;12.53;5.97;;;2.20;99.90;;;2.61;68.21;99132.47;6234286;23;20027;-41
2022/02/26 06:07:40;;;;;;;15.33;6.97;;;2.20;99.90;;;2.61;67.81;99143.00;6206885;23;20024;-42
2022/02/26 06:10:09;;;;;;;10.13;5.63;;;2.20;99.90;;;2.48;68.56;99137.47;6232499;23;20016;-40
2022/02/26 06:12:36;;;;;;;10.63;6.17;;;2.20;99.90;;;2.47;68.16;99143.66;6234828;23;20024;-40
2022/02/26 06:15:05;;;;;;;14.47;7.70;;;2.10;99.90;;;2.49;68.56;99149.69;6234094;23;20020;-41
2022/02/26 06:17:35;;;;;;;11.77;5.70;;;2.20;99.90;;;2.47;68.29;99149.75;6234207;23;20038;-39
2022/02/26 06:20:05;;;;;;;11.23;5.77;;;2.10;99.90;;;2.51;68.31;99146.06;6234206;23;20028;-40
2022/02/26 06:22:33;;;;;;;15.17;6.50;;;2.20;99.90;;;2.44;68.79;99157.78;6234709;23;20030;-40
2022/02/26 06:25:02;;;;;;;15.77;6.57;;;2.10;99.90;;;2.47;68.24;99168.16;6236119;23;20023;-39
2022/02/26 06:27:29;;;;;;;12.27;6.50;;;2.20;99.90;;;2.46;68.70;99168.22;6235437;23;20012;-40
2022/02/26 06:29:57;;;;;;;12.97;6.13;;;2.20;99.90;;;2.50;68.25;99168.03;6233937;23;20024;-40
2022/02/26 06:32:25;;;;;;;12.33;5.87;;;2.20;99.90;;;2.54;68.70;99171.38;6235531;23;20012;-40
2022/02/26 06:34:53;;;;;;;13.10;6.50;;;2.30;99.90;;;2.55;68.55;99179.16;6233695;23;20020;-40
2022/02/26 06:37:20;;;;;;;9.77;5.83;;;2.30;99.90;;;2.60;68.59;99181.59;6235057;23;20034;-40
2022/02/26 06:39:48;;;;;;;14.63;6.77;;;2.30;99.90;;;2.60;68.61;99193.88;6234170;23;20038;-39
2022/02/26 06:42:16;;;;;;;10.27;6.73;;;2.30;99.90;;;2.63;68.17;99191.94;6234467;23;20020;-40
2022/02/26 06:44:44;;;;;;;11.90;6.63;;;2.30;99.90;;;2.65;68.26;99197.13;6232618;23;20026;-40
2022/02/26 06:47:12;;;;;;;12.83;6.67;;;2.40;99.90;;;2.68;68.23;99192.59;6234733;23;20023;-39
2022/02/26 06:49:40;;;;;;;11.73;5.47;;;2.40;99.90;;;2.76;68.19;99200.13;6233316;23;20016;-39
2022/02/26 06:52:08;;;;;;;11.53;5.87;;;2.50;99.90;;;2.79;68.08;99197.31;6235114;23;20050;-39
2022/02/26 06:54:37;;;;;;;9.90;5.57;;;2.50;99.90;;;2.85;68.08;99199.66;6233719;23;20023;-39
2022/02/26 06:57:05;;;;;;;13.53;6.90;;;2.60;99.90;;;2.87;68.23;99200.44;6235744;23;20379;-40
2022/02/26 06:59:33;;;;;;;11.13;5.80;;;2.60;99.90;;;2.87;68.06;99203.06;6235220;23;20030;-39
2022/02/26 07:02:01;;;;;;;10.10;5.83;;;2.60;99.90;;;2.93;67.98;99205.41;6234354;23;20028;-40
2022/02/26 07:04:30;;;;;;;12.87;5.43;;;2.70;99.90;;;2.90;68.30;99204.69;6234443;23;20022;-41
2022/02/26 07:06:58;;;;;;;12.70;6.10;;;2.60;99.90;;;2.87;68.25;99195.19;6233525;23;20020;-40
2022/02/26 07:09:27;;;;;;;11.50;5.83;;;2.60;99.90;;;2.91;68.16;99206.41;6237078;23;20012;-40
2022/02/26 07:11:55;;;;;;;13.63;6.20;;;2.60;99.90;;;2.90;67.96;99208.16;6236771;23;20020;-40
2022/02/26 07:14:23;;;;;;;13.90;6.83;;;2.60;99.90;;;2.91;68.22;99203.78;6235732;23;20024;-40
2022/02/26 07:16:51;;;;;;;12.37;6.43;;;2.60;99.90;;;2.91;68.24;99206.41;6237394;23;20075;-39
2022/02/26 07:19:19;;;;;;;12.63;6.30;;;2.60;99.90;;;2.92;67.87;99216.84;6235984;23;20380;-40
2022/02/26 07:21:46;;;;;;;10.63;6.23;;;2.60;99.90;;;3.01;68.12;99219.97;6236118;23;20349;-39
2022/02/26 07:24:14;;;;;;;15.00;6.57;;;2.70;99.90;;;2.93;68.36;99221.19;6236674;23;20084;-39
2022/02/26 07:26:42;;;;;;;11.30;5.97;;;2.60;99.90;;;2.95;68.25;99221.13;6235063;23;20019;-40
2022/02/26 07:29:10;;;;;;;12.47;5.13;;;2.70;99.90;;;2.96;68.28;99217.53;6235265;23;20022;-40
2022/02/26 07:31:38;;;;;;;9.07;6.63;;;2.60;99.90;;;2.94;67.84;99222.03;6235962;23;20016;-40
2022/02/26 07:34:05;;;;;;;12.03;6.93;;;2.60;99.90;;;2.91;68.07;99217.78;6236611;23;20321;-40
2022/02/26 07:36:34;;;;;;;13.80;6.03;;;2.60;99.90;;;2.98;68.17;99228.84;6236454;23;20028;-40
2022/02/26 07:39:04;;;;;;;10.50;7.43;;;2.70;99.90;;;2.88;68.17;99231.06;6236606;23;20023;-41
2022/02/26 07:41:32;;;;;;;14.70;6.47;;;2.60;99.90;;;2.95;68.03;99226.38;6236335;23;20020;-40
2022/02/26 07:44:00;;;;;;;12.17;6.23;;;2.60;99.90;;;2.99;68.08;99235.81;6236383;23;20030;-41
2022/02/26 07:46:27;;;;;;;8.60;5.77;;;2.70;99.90;;;3.07;68.17;99249.47;6236527;23;20020;-40
2022/02/26 07:48:55;;;;;;;13.30;6.30;;;2.80;99.90;;;3.19;67.88;99252.41;6236919;23;20020;-40
2022/02/26 07:51:23;;;;;;;12.87;6.80;;;2.90;99.90;;;3.25;67.96;99252.13;6236228;23;20020;-40
2022/02/26 07:53:51;;;;;;;14.70;6.43;;;3.00;99.90;;;3.24;68.14;99242.50;6236484;23;20027;-40
2022/02/26 07:56:19;;;;;;;11.20;6.37;;;3.00;99.90;;;3.29;67.93;99259.78;6236025;23;20023;-40
2022/02/26 07:58:51;;;;;;;11.30;6.30;;;3.00;99.90;;;3.29;67.85;99262.41;6235720;23;20034;-40
2022/02/26 08:01:19;;;;;;;13.77;6.40;;;3.00;99.90;;;3.20;67.97;99262.88;6236530;23;20040;-41
2022/02/26 08:03:48;;;;;;;14.67;6.63;;;2.90;99.90;;;3.27;67.83;99264.25;6236064;23;20030;-41
2022/02/26 08:06:15;;;;;;;9.80;6.20;;;3.00;99.90;;;3.22;68.06;99266.28;6236947;23;20023;-41
2022/02/26 08:08:43;;;;;;;16.63;6.93;;;3.00;99.90;;;3.27;67.82;99266.06;6184256;23;20315;-43
2022/02/26 08:11:11;;;;;;;11.47;6.20;;;3.00;99.90;;;3.17;67.62;99270.91;6205810;23;20111;-43
2022/02/26 08:13:39;;;;;;;13.43;6.30;;;2.90;99.90;;;3.20;67.87;99276.03;6233981;23;20038;-40
2022/02/26 08:16:08;;;;;;;13.13;6.17;;;2.90;99.90;;;3.24;67.80;99276.72;6234482;23;20020;-40
2022/02/26 08:18:36;;;;;;;13.13;6.20;;;3.00;99.90;;;3.33;67.74;99282.41;6235261;23;20024;-40
2022/02/26 08:21:04;;;;;;;11.47;6.20;;;3.10;99.90;;;3.43;67.64;99276.66;6236058;23;20016;-40
2022/02/26 08:23:32;;;;;;;12.47;6.40;;;3.20;99.90;;;3.48;67.89;99286.03;6235785;23;20222;-40
2022/02/26 08:26:00;;;;;;;16.37;6.13;;;3.30;99.90;;;3.47;67.34;99275.56;6238139;23;20016;-40
2022/02/26 08:28:28;;;;;;;16.53;6.93;;;3.30;99.90;;;3.50;67.33;99284.19;6234022;23;20030;-39
2022/02/26 08:30:58;;;;;;;12.20;6.50;;;3.30;99.90;;;3.52;67.42;99282.31;6235667;23;20369;-41
2022/02/26 08:33:26;;;;;;;14.10;6.93;;;3.30;99.90;;;3.56;67.38;99285.66;6234225;23;20201;-40
2022/02/26 08:35:54;;;;;;;10.77;6.43;;;3.30;99.90;;;3.67;67.56;99282.50;6248299;23;20013;-39
2022/02/26 08:38:22;;;;;;;11.93;7.67;;;3.50;99.90;;;3.78;67.79;99284.56;6249218;23;20024;-40
2022/02/26 08:40:49;;;;;;;12.57;6.70;;;3.60;99.90;;;3.87;67.28;99277.03;6249989;23;20016;-39
2022/02/26 08:43:17;;;;;;;15.43;6.83;;;3.70;99.90;;;3.91;67.47;99281.22;6248599;23;20034;-40
2022/02/26 08:45:45;;;;;;;11.43;6.43;;;3.70;99.90;;;3.99;66.93;99278.19;6248510;23;20020;-40
2022/02/26 08:48:13;;;;;;;16.23;7.97;;;3.80;99.90;;;4.00;67.01;99279.91;6224087;23;20019;-39
2022/02/26 08:50:41;;;;;;;15.47;7.50;;;3.80;99.90;;;3.94;66.65;99278.44;6221946;23;20046;-40
2022/02/26 08:53:08;;;;;;;17.93;8.53;;;3.70;99.90;;;3.93;66.77;99274.09;6250129;23;20016;-39
2022/02/26 08:55:36;;;;;;;12.97;6.93;;;3.70;99.90;;;3.94;66.17;99269.69;6250471;23;20031;-39
2022/02/26 08:58:06;;;;;;;16.07;7.63;;;3.60;99.90;;;3.97;66.34;99268.66;6259074;23;20023;-39
2022/02/26 09:00:35;;;;;;;12.90;7.07;;;3.70;99.90;;;4.01;66.41;99273.69;6247383;23;20023;-39
2022/02/26 09:03:04;;;;;;;14.50;6.40;;;3.70;99.90;;;4.07;66.69;99273.41;6247766;23;20027;-40
2022/02/26 09:05:32;;;;;;;11.90;6.33;;;3.80;99.90;;;4.10;66.59;99278.50;6247146;23;20028;-40
2022/02/26 09:08:00;;;;;;;10.60;6.33;;;3.90;99.90;;;4.16;66.76;99279.13;6260002;23;20022;-39
2022/02/26 09:10:28;;;;;;;16.10;7.70;;;3.90;99.90;;;4.22;66.33;99278.78;6260376;23;20190;-40
2022/02/26 09:12:56;;;;;;;14.47;8.27;;;4.00;99.90;;;4.27;66.44;99274.97;6250091;23;20026;-39
2022/02/26 09:15:24;;;;;;;15.20;6.83;;;4.10;99.90;;;4.36;66.31;99276.25;6224443;23;20027;-39
2022/02/26 09:17:51;;;;;;;13.83;7.20;;;4.20;99.90;;;4.42;65.93;99270.66;6247751;23;20302;-39
2022/02/26 09:20:19;;;;;;;12.00;6.40;;;4.20;99.90;;;4.47;65.71;99273.88;6245845;23;20012;-39
2022/02/26 09:22:48;;;;;;;14.93;6.63;;;4.30;99.90;;;4.51;65.90;99270.16;6246850;23;20022;-39
2022/02/26 09:25:16;;;;;;;19.77;8.00;;;4.30;99.30;;;4.56;65.82;99277.00;6250846;23;20019;-39
2022/02/26 09:27:44;;;;;;;19.87;11.03;;;4.30;98.40;;;4.60;65.74;99279.38;6247934;23;20026;-38
2022/02/26 09:30:15;;;;;;;15.53;8.03;;;4.40;98.50;;;4.63;66.03;99276.53;6249659;23;20022;-39
2022/02/26 09:32:44;;;;;;;11.93;6.70;;;4.40;97.00;;;4.63;65.15;99279.19;6248875;23;20024;-39
2022/02/26 09:35:11;;;;;;;11.63;7.13;;;4.50;94.70;;;4.67;65.35;99280.75;6250581;23;20023;-39
2022/02/26 09:37:39;;;;;;;10.37;5.67;;;4.50;94.30;;;4.70;64.83;99280.56;6250818;23;20337;-40
2022/02/26 09:40:08;;;;;;;13.30;7.17;;;4.50;92.70;;;4.71;64.96;99276.13;6248265;23;20046;-39
2022/02/26 09:42:36;;;;;;;14.63;7.33;;;4.50;92.10;;;4.74;64.76;99275.97;6247988;23;20050;-40
2022/02/26 09:45:05;;;;;;;11.27;6.37;;;4.50;91.80;;;4.78;65.15;99276.66;6249548;23;20206;-40
2022/02/26 09:47:33;;;;;;;10.00;5.50;;;4.50;90.30;;;4.80;63.68;99275.63;6250134;23;20053;-39
2022/02/26 09:50:01;;;;;;;10.30;6.80;;;4.70;89.10;;;4.84;64.66;99278.94;6250057;23;20012;-40
2022/02/26 09:52:30;;;;;;;10.50;7.10;;;4.70;88.60;;;4.85;64.18;99278.03;6259551;23;20026;-37
2022/02/26 09:54:58;;;;;;;12.43;6.83;;;4.70;87.30;;;4.85;63.83;99273.59;6248224;23;20046;-37
2022/02/26 09:57:30;;;;;;;10.70;6.43;;;4.70;86.60;;;4.88;64.37;99277.84;6259152;23;20020;-38
2022/02/26 09:59:58;;;;;;;12.43;6.23;;;4.70;86.60;;;4.90;63.87;99276.84;6249055;23;20028;-38
2022/02/26 10:02:33;;;;;;;10.37;5.87;;;4.80;85.20;;;4.98;63.55;99281.66;6247756;23;20016;-38
2022/02/26 10:05:07;;;;;;;11.63;5.60;;;4.90;85.20;;;5.05;63.84;99277.75;6258157;23;20024;-38
2022/02/26 10:07:36;;;;;;;8.70;5.60;;;5.00;83.80;;;5.10;63.60;99277.50;6260014;23;20332;-38
2022/02/26 10:10:29;;;;;;;9.83;5.00;;;5.00;84.30;;;5.16;63.91;99278.91;6260179;23;20027;-39
2022/02/26 10:13:00;;;;;;;15.47;7.87;;;5.00;82.70;;;5.18;62.71;99285.84;6248998;23;20016;-37
2022/02/26 10:15:36;;;;;;;13.50;6.13;;;5.10;83.10;;;5.21;62.68;99282.16;6261168;23;20018;-37
2022/02/26 10:18:11;;;;;;;16.17;5.90;;;5.10;80.10;;;5.23;62.03;99285.56;6260530;23;20027;-37
2022/02/26 10:20:56;;;;;;;17.30;6.33;;;5.10;79.80;;;5.27;62.82;99284.44;6252999;23;20038;-38
2022/02/26 10:23:24;;;;;;;;;;;5.20;78.40;;;5.26;62.04;99288.03;6250073;23;20026;-38
2022/02/26 10:26:05;;;;;;;10.10;4.37;;;5.10;74.90;;;5.31;61.87;99289.47;6247972;23;19919;-37
2022/02/26 10:28:38;;;;;;;8.83;4.77;;;5.10;77.70;;;5.34;60.97;99291.09;6236056;23;20024;-37
2022/02/26 10:31:08;;;;;;;12.57;3.67;;;5.20;76.30;;;5.39;61.16;99286.41;6197145;23;20016;-37
2022/02/26 10:33:36;;;;;;;9.47;3.67;;;5.30;75.70;;;5.43;60.99;99284.41;6249047;23;20024;-37
2022/02/26 10:36:08;;;;;;;9.17;2.80;;;5.30;74.20;;;5.51;60.59;99288.31;6249009;23;20012;-37
2022/02/26 10:38:37;;;;;;;5.53;2.47;;;5.40;73.40;;;5.62;59.57;99285.06;6248175;23;20042;-37
2022/02/26 10:41:09;;;;;;;5.67;2.13;;;5.60;72.20;;;5.73;59.74;99287.91;6248535;23;20024;-37